createdAt,value
2017-11-04T09:22:36.141Z,99.90
2017-11-04T09:25:03.705Z,99.90
2017-11-04T09:27:31.242Z,99.90
2017-11-04T09:29:58.814Z,99.90
2017-11-04T09:32:26.566Z,99.90
2017-11-04T09:34:54.099Z,99.90
2017-11-04T09:37:21.644Z,99.90
2017-11-04T09:39:49.171Z,99.90
2017-11-04T09:42:16.736Z,99.90
2017-11-04T09:44:45.078Z,99.90
2017-11-04T09:47:12.602Z,99.90
2017-11-04T09:49:40.941Z,99.90
2017-11-04T09:52:08.460Z,99.90
2017-11-04T09:54:36.745Z,99.90
2017-11-04T09:57:05.074Z,99.90
2017-11-04T09:59:32.593Z,99.90
2017-11-04T10:02:00.166Z,99.90
2017-11-04T10:04:27.768Z,99.90
2017-11-04T10:06:55.422Z,99.90
2017-11-04T10:09:23.727Z,99.90
2017-11-04T10:11:52.079Z,99.90
2017-11-04T10:14:19.615Z,99.90
2017-11-04T10:16:47.191Z,99.90
2017-11-04T10:19:14.741Z,99.90
2017-11-04T10:21:42.310Z,99.90
2017-11-04T10:24:09.844Z,99.90
2017-11-04T10:26:37.427Z,99.90
2017-11-04T10:29:05.738Z,99.90
2017-11-04T10:31:34.096Z,99.90
2017-11-04T10:34:02.464Z,99.90
2017-11-04T10:36:30.010Z,99.90
2017-11-04T10:38:57.575Z,99.90
2017-11-04T10:41:25.114Z,99.90
2017-11-04T10:43:52.695Z,99.90
2017-11-04T10:46:20.994Z,99.90
2017-11-04T10:48:49.291Z,99.90
2017-11-04T10:51:16.878Z,99.90
2017-11-04T10:53:44.622Z,99.90
2017-11-04T10:56:12.939Z,99.90
2017-11-04T10:58:40.498Z,99.90
2017-11-04T11:01:08.851Z,99.90
2017-11-04T11:03:36.383Z,99.90
2017-11-04T11:06:03.912Z,99.90
2017-11-04T11:08:31.485Z,99.90
2017-11-04T11:10:59.023Z,99.90
2017-11-04T11:13:26.617Z,99.90
2017-11-04T11:15:54.152Z,99.90
2017-11-04T11:18:21.734Z,99.90
2017-11-04T11:20:49.267Z,99.90
2017-11-04T11:23:17.562Z,99.90
2017-11-04T11:25:45.126Z,99.90
2017-11-04T11:28:13.439Z,99.90
2017-11-04T11:30:41.039Z,99.90
2017-11-04T11:33:08.575Z,99.90
2017-11-04T11:35:36.152Z,99.90
2017-11-04T11:38:03.721Z,99.90
2017-11-04T11:40:31.273Z,99.90
2017-11-04T11:42:59.603Z,99.90
2017-11-04T11:45:27.189Z,99.90
2017-11-04T11:47:54.724Z,99.90
2017-11-04T11:50:22.263Z,99.90
2017-11-04T11:52:49.843Z,99.90
2017-11-04T11:55:18.147Z,99.90
2017-11-04T11:57:46.453Z,99.90
2017-11-04T12:00:14.035Z,99.90
2017-11-04T12:02:41.587Z,99.90
2017-11-04T12:05:09.167Z,99.90
2017-11-04T12:07:36.710Z,99.90
2017-11-04T12:10:05.007Z,99.90
2017-11-04T12:12:33.345Z,99.90
2017-11-04T12:15:00.905Z,99.90
2017-11-04T12:17:28.485Z,99.90
2017-11-04T12:19:56.340Z,99.90
2017-11-04T12:22:23.916Z,99.90
2017-11-04T12:24:51.487Z,99.90
2017-11-04T12:27:19.023Z,99.90
2017-11-04T12:29:46.587Z,99.90
2017-11-04T12:32:14.133Z,99.90
2017-11-04T12:34:41.719Z,99.90
2017-11-04T12:37:09.250Z,99.90
2017-11-04T12:39:36.909Z,99.90
2017-11-04T12:42:04.483Z,99.90
2017-11-04T12:44:32.015Z,99.90
2017-11-04T12:46:59.586Z,99.90
2017-11-04T12:49:27.116Z,99.60
2017-11-04T12:51:54.659Z,99.80
2017-11-04T12:54:22.990Z,98.50
2017-11-04T12:56:50.527Z,98.50
2017-11-04T12:59:18.867Z,97.80
2017-11-04T13:01:46.398Z,97.80
2017-11-04T13:04:13.931Z,97.90
2017-11-04T13:06:41.495Z,97.80
2017-11-04T13:09:09.022Z,98.10
2017-11-04T13:11:36.598Z,97.80
2017-11-04T13:14:04.128Z,97.90
2017-11-04T13:16:31.700Z,97.80
2017-11-04T13:19:00.030Z,97.90
2017-11-04T13:21:27.628Z,97.90
2017-11-04T13:23:55.178Z,98.10
2017-11-04T13:26:22.768Z,98.20
2017-11-04T13:28:50.298Z,97.50
2017-11-04T13:31:18.592Z,98.30
2017-11-04T13:33:46.183Z,98.30
2017-11-04T13:36:13.719Z,98.60
2017-11-04T13:38:42.034Z,98.10
2017-11-04T13:41:09.630Z,98.10
2017-11-04T13:43:37.302Z,98.20
2017-11-04T13:46:04.842Z,98.20
2017-11-04T13:48:33.163Z,98.30
2017-11-04T13:51:00.688Z,98.30
2017-11-04T13:53:28.248Z,97.80
2017-11-04T13:55:55.828Z,97.80
2017-11-04T13:58:23.346Z,98.20
2017-11-04T14:00:50.888Z,98.30
2017-11-04T14:03:19.266Z,98.70
2017-11-04T14:05:47.572Z,98.70
2017-11-04T14:08:15.099Z,98.70
2017-11-04T14:10:42.663Z,98.60
2017-11-04T14:13:10.199Z,98.50
2017-11-04T14:15:37.760Z,98.50
2017-11-04T14:18:05.302Z,98.60
2017-11-04T14:20:32.894Z,98.90
2017-11-04T14:23:01.183Z,99.20
2017-11-04T14:25:29.507Z,99.30
2017-11-04T14:27:57.045Z,99.30
2017-11-04T14:30:25.388Z,99.30
2017-11-04T14:32:52.942Z,99.30
2017-11-04T14:35:20.479Z,99.40
2017-11-04T14:37:48.824Z,99.80
2017-11-04T14:40:16.386Z,99.80
2017-11-04T14:42:43.946Z,99.90
2017-11-04T14:45:11.511Z,99.90
2017-11-04T14:47:39.083Z,99.90
2017-11-04T14:50:06.644Z,99.90
2017-11-04T14:52:34.291Z,99.90
2017-11-04T14:55:02.630Z,99.90
2017-11-04T14:57:30.260Z,99.90
2017-11-04T14:59:58.567Z,99.90
2017-11-04T15:02:26.154Z,99.90
2017-11-04T15:04:53.695Z,99.90
2017-11-04T15:07:21.223Z,99.90
2017-11-04T15:09:48.793Z,99.90
2017-11-04T15:12:17.177Z,99.90
2017-11-04T15:14:44.736Z,99.90
2017-11-04T15:17:12.302Z,99.90
2017-11-04T15:19:39.921Z,99.90
2017-11-04T15:22:07.502Z,99.90
2017-11-04T15:24:35.050Z,99.90
2017-11-04T15:27:02.633Z,99.90
2017-11-04T15:29:30.172Z,99.90
2017-11-04T15:31:57.699Z,99.90
2017-11-04T15:34:25.274Z,99.90
2017-11-04T15:36:52.798Z,99.90
2017-11-04T15:39:20.363Z,99.90
2017-11-04T15:41:47.899Z,99.90
2017-11-04T15:44:16.256Z,99.90
2017-11-04T15:46:43.795Z,99.90
2017-11-04T15:49:11.335Z,99.90
2017-11-04T15:51:39.691Z,99.90
2017-11-04T15:54:07.279Z,99.90
2017-11-04T15:56:34.808Z,99.90
2017-11-04T15:59:02.421Z,99.90
2017-11-04T16:01:29.970Z,99.90
2017-11-04T16:03:57.547Z,99.90
2017-11-04T16:06:25.075Z,99.90
2017-11-04T16:08:52.611Z,99.90
2017-11-04T16:11:20.174Z,99.90
2017-11-04T16:13:47.720Z,99.90
2017-11-04T16:16:15.289Z,99.90
2017-11-04T16:18:42.820Z,99.90
2017-11-04T16:21:11.149Z,99.90
2017-11-04T16:23:38.719Z,99.90
2017-11-04T16:26:06.280Z,99.90
2017-11-04T16:28:33.868Z,99.90
2017-11-04T16:31:01.410Z,99.90
2017-11-04T16:33:28.939Z,99.90
2017-11-04T16:35:56.499Z,99.90
2017-11-04T16:38:24.045Z,99.90
2017-11-04T16:40:51.611Z,99.90
2017-11-04T16:43:19.171Z,99.90
2017-11-04T16:45:47.491Z,99.90
2017-11-04T16:48:15.076Z,99.90
2017-11-04T16:50:42.616Z,99.90
2017-11-04T16:53:10.138Z,99.90
2017-11-04T16:55:37.696Z,99.90
2017-11-04T16:58:05.273Z,99.90
2017-11-04T17:00:32.820Z,99.90
2017-11-04T17:03:00.398Z,99.90
2017-11-04T17:05:27.935Z,99.90
2017-11-04T17:07:55.513Z,99.90
2017-11-04T17:10:23.063Z,99.90
2017-11-04T17:12:51.446Z,99.90
2017-11-04T17:15:18.984Z,99.90
2017-11-04T17:17:46.527Z,99.90
2017-11-04T17:20:14.107Z,99.90
2017-11-04T17:22:41.648Z,99.90
2017-11-04T17:25:09.942Z,99.90
2017-11-04T17:27:38.278Z,99.90
2017-11-04T17:30:05.808Z,99.90
2017-11-04T17:32:33.400Z,99.90
2017-11-04T17:35:00.947Z,99.90
2017-11-04T17:37:29.277Z,99.90
2017-11-04T17:39:56.816Z,99.90
2017-11-04T17:42:24.390Z,99.90
2017-11-04T17:44:51.918Z,99.90
2017-11-04T17:47:19.501Z,99.90
2017-11-04T17:49:47.038Z,99.90
2017-11-04T17:52:14.667Z,99.90
2017-11-04T17:54:43.013Z,99.90
2017-11-04T17:57:10.559Z,99.90
2017-11-04T17:59:38.142Z,99.90
2017-11-04T18:02:05.735Z,99.90
2017-11-04T18:04:33.270Z,99.90
2017-11-04T18:07:00.835Z,99.90
2017-11-04T18:09:28.368Z,99.90
2017-11-04T18:11:55.944Z,99.90
2017-11-04T18:14:23.488Z,99.90
2017-11-04T18:16:51.074Z,99.90
2017-11-04T18:19:18.608Z,99.90
2017-11-04T18:21:46.179Z,99.90
2017-11-04T18:24:13.716Z,99.90
2017-11-04T18:26:42.030Z,99.90
2017-11-04T18:29:10.355Z,99.90
2017-11-04T18:31:37.899Z,99.90
2017-11-04T18:34:05.462Z,99.90
2017-11-04T18:36:33.017Z,99.90
2017-11-04T18:39:00.652Z,99.90
2017-11-04T18:41:28.367Z,99.90
2017-11-04T18:43:56.669Z,99.90
2017-11-04T18:46:24.243Z,99.90
2017-11-04T18:48:52.534Z,99.90
2017-11-04T18:51:20.072Z,99.90
2017-11-04T18:53:47.694Z,99.90
2017-11-04T18:56:15.326Z,99.90
2017-11-04T18:58:42.855Z,99.90
2017-11-04T19:01:10.442Z,99.90
2017-11-04T19:03:37.977Z,99.90
2017-11-04T19:06:05.503Z,99.90
2017-11-04T19:08:33.071Z,99.90
2017-11-04T19:11:00.644Z,99.90
2017-11-04T19:13:28.192Z,99.90
2017-11-04T19:15:55.766Z,99.90
2017-11-04T19:18:23.295Z,99.90
2017-11-04T19:20:51.595Z,99.90
2017-11-04T19:23:19.155Z,99.90
2017-11-04T19:25:47.441Z,99.90
2017-11-04T19:28:15.783Z,99.90
2017-11-04T19:30:43.318Z,99.90
2017-11-04T19:33:11.244Z,99.90
2017-11-04T19:35:38.773Z,99.90
2017-11-04T19:38:06.302Z,99.90
2017-11-04T19:40:33.876Z,99.90
2017-11-04T19:43:01.403Z,99.90
2017-11-04T19:45:28.977Z,99.90
2017-11-04T19:47:56.523Z,99.90
2017-11-04T19:50:24.061Z,99.90
2017-11-04T19:52:51.638Z,99.90
2017-11-04T19:55:19.174Z,99.90
2017-11-04T19:57:46.736Z,99.90
2017-11-04T20:00:14.320Z,99.90
2017-11-04T20:02:41.856Z,99.90
2017-11-04T20:05:09.431Z,99.90
2017-11-04T20:07:37.002Z,99.90
2017-11-04T20:10:04.568Z,99.90
2017-11-04T20:12:32.119Z,99.90
2017-11-04T20:14:59.683Z,99.90
2017-11-04T20:17:27.255Z,99.90
2017-11-04T20:19:54.811Z,99.90
2017-11-04T20:22:22.355Z,99.90
2017-11-04T20:24:49.919Z,99.90
2017-11-04T20:27:17.471Z,99.90
2017-11-04T20:29:45.798Z,99.90
2017-11-04T20:32:13.337Z,99.90
2017-11-04T20:34:41.693Z,99.90
2017-11-04T20:37:09.227Z,99.90
2017-11-04T20:39:36.766Z,99.90
2017-11-04T20:42:05.093Z,99.90
2017-11-04T20:44:32.626Z,99.90
2017-11-04T20:47:00.981Z,99.90
2017-11-04T20:49:28.546Z,99.90
2017-11-04T20:51:56.095Z,99.90
2017-11-04T20:54:23.676Z,99.90
2017-11-04T20:56:51.234Z,99.90
2017-11-04T20:59:18.773Z,99.90
2017-11-04T21:01:47.124Z,99.90
2017-11-04T21:04:14.681Z,99.90
2017-11-04T21:06:42.219Z,99.90
2017-11-04T21:09:11.130Z,99.90
2017-11-04T21:11:38.713Z,99.90
2017-11-04T21:14:06.475Z,99.90
2017-11-04T21:16:34.035Z,99.90
2017-11-04T21:19:02.371Z,99.90
2017-11-04T21:21:29.941Z,99.90
2017-11-04T21:23:57.492Z,99.90
2017-11-04T21:26:25.057Z,99.90
2017-11-04T21:28:52.588Z,99.90
2017-11-04T21:31:20.146Z,99.90
2017-11-04T21:33:47.678Z,99.90
2017-11-04T21:36:15.259Z,99.90
2017-11-04T21:38:42.790Z,99.90
2017-11-04T21:41:11.126Z,99.90
2017-11-04T21:43:39.575Z,99.90
2017-11-04T21:46:07.973Z,99.90
2017-11-04T21:48:36.283Z,99.90
2017-11-04T21:51:03.824Z,99.90
2017-11-04T21:53:31.427Z,99.90
2017-11-04T21:55:58.967Z,99.90
2017-11-04T21:58:26.505Z,99.90
2017-11-04T22:00:54.098Z,99.90
2017-11-04T22:03:21.643Z,99.90
2017-11-04T22:05:49.240Z,99.90
2017-11-04T22:08:16.817Z,99.90
2017-11-04T22:10:44.349Z,99.90
2017-11-04T22:13:11.991Z,99.90
2017-11-04T22:15:40.293Z,99.90
2017-11-04T22:18:07.872Z,99.90
2017-11-04T22:20:35.402Z,99.90
2017-11-04T22:23:02.952Z,99.90
2017-11-04T22:25:30.523Z,99.90
2017-11-04T22:27:58.083Z,99.90
2017-11-04T22:30:25.659Z,99.90
2017-11-04T22:32:53.198Z,99.90
2017-11-04T22:35:20.775Z,99.90
2017-11-04T22:37:48.386Z,99.90
2017-11-04T22:40:15.990Z,99.90
2017-11-04T22:42:43.535Z,99.90
2017-11-04T22:45:11.114Z,99.90
2017-11-04T22:47:38.698Z,99.90
2017-11-04T22:50:06.260Z,99.90
2017-11-04T22:52:33.832Z,99.90
2017-11-04T22:55:01.387Z,99.90
2017-11-04T22:57:28.954Z,99.90
2017-11-04T22:59:56.495Z,99.90
2017-11-04T23:02:24.066Z,99.90
2017-11-04T23:04:51.598Z,99.90
2017-11-04T23:07:19.134Z,99.90
2017-11-04T23:09:46.788Z,99.90
2017-11-04T23:12:14.339Z,99.90
2017-11-04T23:14:42.655Z,99.90
2017-11-04T23:17:10.216Z,99.90
2017-11-04T23:19:37.799Z,99.90
2017-11-04T23:22:05.339Z,99.90
2017-11-04T23:24:33.684Z,99.90
2017-11-04T23:27:01.236Z,99.90
2017-11-04T23:29:28.774Z,99.90
2017-11-04T23:31:57.099Z,99.90
2017-11-04T23:34:24.643Z,99.90
2017-11-04T23:36:52.996Z,99.90
2017-11-04T23:39:20.547Z,99.90
2017-11-04T23:41:48.086Z,99.90
2017-11-04T23:44:15.678Z,99.90
2017-11-04T23:46:43.275Z,99.90
2017-11-04T23:49:10.815Z,99.90
2017-11-04T23:51:38.363Z,99.90
2017-11-04T23:54:06.703Z,99.90
2017-11-04T23:56:34.235Z,99.90
2017-11-04T23:59:02.575Z,99.90
